Cleveland, Ohio
Traffic Map
Current Weather Conditions
Cleveland, Ohio
Overcast
Overcast
22°
Feels Like: 5°
Wind Chill: Ceiling: 4700
Heat Index: 22° Visibility: 10mi
Dew Point: 10° Wind: 26mph
Humidity: 60% Direction: 310° (NW)
Pressure: 30.02in Gusts: 39mph
Raw Report DataKBKL 130153Z AUTO 31023G34KT 10SM FEW038 BKN047 OVC080 M06/M12 A3002 RMK AO2 PK WND 30036/0126 SLP177 T10561122
Traffic Incident Summary
Active as of:
Severity:
Category:
InformationThere was an issue retrieving the traffic information for this location. Please try a different location or try again shortly.
Advertisements
Track Severe Weather on mobile